Time;durP1;ratioP1;P1;durP2;ratioP2;P2;SDS_P1;SDS_P2;PMS_P1;PMS_P2;Temp;Humidity;BMP_temperature;BMP_pressure;BME280_temperature;BME280_humidity;BME280_pressure;Samples;Min_cycle;Max_cycle;Signal;HPM_P1;HPM_P2
2024/02/03 00:00:22;;;;;;;38.25;19.38;;;10.20;99.90;;;;;;5033849;28;19920;-68
2024/02/03 00:02:50;;;;;;;41.83;21.60;;;10.20;99.90;;;;;;5035614;28;20069;-65
2024/02/03 00:05:18;;;;;;;43.55;21.67;;;10.20;99.90;;;;;;5033778;28;20142;-65
2024/02/03 00:07:46;;;;;;;40.55;22.63;;;10.20;99.90;;;;;;5037236;28;20040;-65
2024/02/03 00:10:13;;;;;;;42.13;22.55;;;10.20;99.90;;;;;;5042186;28;20078;-65
2024/02/03 00:12:42;;;;;;;44.85;21.98;;;10.30;99.90;;;;;;5039184;28;20083;-66
2024/02/03 00:15:08;;;;;;;;;;;10.20;99.90;;;;;;5035494;28;20412;-66
2024/02/03 00:17:36;;;;;;;42.63;22.08;;;10.30;99.90;;;;;;5037948;28;19920;-66
2024/02/03 00:20:05;;;;;;;43.03;21.85;;;10.30;99.90;;;;;;5037288;28;20040;-66
2024/02/03 00:22:33;;;;;;;42.47;22.63;;;10.30;99.90;;;;;;5037033;28;20581;-66
2024/02/03 00:25:00;;;;;;;42.65;22.10;;;10.30;99.90;;;;;;5039866;28;20082;-66
2024/02/03 00:27:28;;;;;;;43.65;22.40;;;10.30;99.90;;;;;;5039927;28;20037;-66
2024/02/03 00:29:56;;;;;;;;;;;10.30;99.90;;;;;;5016588;28;20034;-66
2024/02/03 00:32:24;;;;;;;;;;;10.30;99.90;;;;;;5038133;28;19917;-66
2024/02/03 00:34:52;;;;;;;;;;;10.30;99.90;;;;;;5033813;28;19926;-66
2024/02/03 00:37:20;;;;;;;;;;;10.30;99.90;;;;;;5041607;28;19921;-66
2024/02/03 00:39:48;;;;;;;50.28;23.77;;;10.30;99.90;;;;;;5041686;28;19916;-66
2024/02/03 00:42:16;;;;;;;44.83;23.50;;;10.30;99.90;;;;;;5039772;28;20028;-66
2024/02/03 00:44:44;;;;;;;53.92;24.60;;;10.30;99.90;;;;;;5037137;28;20443;-66
2024/02/03 00:47:10;;;;;;;;;;;10.30;99.90;;;;;;5040541;28;20175;-65
2024/02/03 00:49:35;;;;;;;45.88;23.48;;;10.30;99.90;;;;;;5040253;28;19939;-66
2024/02/03 00:52:03;;;;;;;46.75;23.20;;;10.30;99.90;;;;;;5042157;28;20140;-66
2024/02/03 00:54:31;;;;;;;50.60;24.25;;;10.30;99.90;;;;;;5043397;28;20033;-66
2024/02/03 00:56:57;;;;;;;;;;;10.30;99.90;;;;;;5047677;28;20052;-66
2024/02/03 00:59:27;;;;;;;44.95;22.00;;;10.30;99.90;;;;;;5042269;28;19921;-66
2024/02/03 01:01:53;;;;;;;45.78;23.67;;;10.40;99.90;;;;;;5039751;28;20045;-66
2024/02/03 01:04:23;;;;;;;48.63;23.52;;;10.40;99.90;;;;;;5039432;28;20047;-66
2024/02/03 01:06:51;;;;;;;45.28;23.27;;;10.40;99.90;;;;;;5041236;28;20522;-66
2024/02/03 01:09:19;;;;;;;49.53;23.60;;;10.40;99.90;;;;;;5042683;28;20052;-66
2024/02/03 01:11:47;;;;;;;41.22;22.13;;;10.40;99.90;;;;;;5040452;28;20036;-66
2024/02/03 01:14:16;;;;;;;47.22;23.15;;;10.40;99.90;;;;;;5038532;28;20083;-66
2024/02/03 01:16:44;;;;;;;46.85;22.20;;;10.50;99.90;;;;;;5042676;28;20025;-66
2024/02/03 01:19:09;;;;;;;46.80;22.23;;;10.50;99.90;;;;;;5043336;28;20129;-66
2024/02/03 01:21:37;;;;;;;41.22;21.08;;;10.50;99.90;;;;;;5041040;28;20120;-66
2024/02/03 01:24:03;;;;;;;44.97;21.25;;;10.50;99.90;;;;;;5037645;28;20033;-66
2024/02/03 01:26:31;;;;;;;43.72;22.40;;;10.50;99.90;;;;;;5044811;28;20044;-66
2024/02/03 01:28:59;;;;;;;;;;;10.50;99.90;;;;;;5039440;28;20060;-66
2024/02/03 01:31:29;;;;;;;;;;;10.50;99.90;;;;;;5039398;28;20110;-66
2024/02/03 01:33:57;;;;;;;38.42;20.30;;;10.50;99.90;;;;;;5045779;28;19905;-66
2024/02/03 01:36:23;;;;;;;;;;;10.50;99.90;;;;;;5043544;28;20525;-66
2024/02/03 01:38:52;;;;;;;35.58;19.20;;;10.50;99.90;;;;;;5042457;28;19913;-66
2024/02/03 01:41:20;;;;;;;36.33;20.50;;;10.50;99.90;;;;;;5041984;28;20064;-66
2024/02/03 01:43:46;;;;;;;46.67;22.63;;;10.60;99.90;;;;;;5039864;28;20038;-66
2024/02/03 01:46:12;;;;;;;41.67;20.65;;;10.60;99.90;;;;;;5036735;28;20038;-66
2024/02/03 01:48:41;;;;;;;42.45;20.67;;;10.60;99.90;;;;;;5039469;28;20052;-66
2024/02/03 01:51:10;;;;;;;40.35;22.15;;;10.60;99.90;;;;;;5042400;28;20049;-66
2024/02/03 01:53:35;;;;;;;39.63;19.98;;;10.60;99.90;;;;;;5042406;28;20025;-66
2024/02/03 01:56:02;;;;;;;41.03;18.27;;;10.60;99.90;;;;;;5041682;28;20092;-66
2024/02/03 01:58:27;;;;;;;39.42;20.67;;;10.60;99.90;;;;;;5042255;28;20044;-66
2024/02/03 02:00:53;;;;;;;37.60;20.20;;;10.70;99.90;;;;;;5037274;28;20052;-66
2024/02/03 02:03:19;;;;;;;37.05;19.88;;;10.60;99.90;;;;;;5043296;28;20031;-66
2024/02/03 02:05:47;;;;;;;36.63;18.88;;;10.70;99.90;;;;;;5040555;28;20032;-66
2024/02/03 02:08:13;;;;;;;;;;;10.70;99.90;;;;;;5045017;28;20037;-66
2024/02/03 02:10:41;;;;;;;36.08;18.65;;;10.70;99.90;;;;;;5042796;28;19913;-66
2024/02/03 02:13:09;;;;;;;41.13;19.17;;;10.70;99.90;;;;;;5044958;28;20075;-66
2024/02/03 02:15:34;;;;;;;40.40;19.05;;;10.70;99.90;;;;;;5036568;28;20025;-66
2024/02/03 02:18:01;;;;;;;37.88;19.55;;;10.70;99.90;;;;;;5040855;28;20028;-66
2024/02/03 02:20:31;;;;;;;36.90;19.38;;;10.70;99.90;;;;;;5039393;28;20702;-66
2024/02/03 02:22:59;;;;;;;36.80;19.70;;;10.70;99.90;;;;;;5039947;28;20037;-66
2024/02/03 02:25:27;;;;;;;41.35;19.63;;;10.70;99.90;;;;;;5041102;28;20025;-66
2024/02/03 02:27:52;;;;;;;38.13;18.95;;;10.70;99.90;;;;;;5033750;28;20068;-66
2024/02/03 02:30:20;;;;;;;38.15;18.55;;;10.70;99.90;;;;;;5036980;28;20049;-66
2024/02/03 02:32:48;;;;;;;38.85;19.33;;;10.70;99.90;;;;;;5040524;28;20841;-66
2024/02/03 02:35:16;;;;;;;41.25;18.77;;;10.70;99.90;;;;;;5039744;28;20029;-66
2024/02/03 02:37:44;;;;;;;39.05;20.20;;;10.60;99.90;;;;;;5039128;28;20039;-66
2024/02/03 02:40:12;;;;;;;;;;;10.70;99.90;;;;;;5041565;28;20434;-66
2024/02/03 02:42:38;;;;;;;42.00;19.70;;;10.70;99.90;;;;;;5041118;28;19917;-66
2024/02/03 02:45:07;;;;;;;31.25;17.23;;;10.60;99.90;;;;;;5040770;28;20033;-66
2024/02/03 02:47:34;;;;;;;36.17;19.02;;;10.60;99.90;;;;;;5035926;28;20075;-65
2024/02/03 02:50:00;;;;;;;39.00;20.45;;;10.60;99.90;;;;;;5038486;28;20041;-66
2024/02/03 02:52:28;;;;;;;35.83;19.02;;;10.60;99.90;;;;;;5042473;28;20490;-66
2024/02/03 02:54:56;;;;;;;;;;;10.60;99.90;;;;;;5036984;28;20033;-66
2024/02/03 02:57:24;;;;;;;36.80;19.75;;;10.60;99.90;;;;;;5044169;28;19915;-66
2024/02/03 02:59:50;;;;;;;41.05;20.63;;;10.60;99.90;;;;;;5023709;28;20116;-65
2024/02/03 03:02:18;;;;;;;37.90;18.63;;;10.60;99.90;;;;;;5040628;28;20562;-65
2024/02/03 03:04:43;;;;;;;40.00;19.52;;;10.50;99.90;;;;;;5036435;28;20053;-65
2024/02/03 03:07:11;;;;;;;35.72;18.92;;;10.50;99.90;;;;;;5037268;28;20075;-65
2024/02/03 03:09:39;;;;;;;33.40;18.20;;;10.50;99.90;;;;;;5037835;28;20108;-65
2024/02/03 03:12:08;;;;;;;36.72;19.10;;;10.50;99.90;;;;;;5031215;23;20038;-65
2024/02/03 03:14:34;;;;;;;38.35;19.42;;;10.50;99.90;;;;;;5020369;28;20045;-65
2024/02/03 03:17:02;;;;;;;42.72;19.73;;;10.50;99.90;;;;;;5019583;28;20054;-65
2024/02/03 03:19:34;;;;;;;35.95;18.70;;;10.50;99.90;;;;;;5016224;28;20048;-66
2024/02/03 03:22:05;;;;;;;38.88;19.23;;;10.50;99.90;;;;;;5014465;28;20026;-65
2024/02/03 03:24:31;;;;;;;41.97;20.20;;;10.50;99.90;;;;;;5021738;28;20064;-65
2024/02/03 03:26:59;;;;;;;37.42;18.42;;;10.50;99.90;;;;;;5022150;28;20118;-65
2024/02/03 03:29:27;;;;;;;37.80;20.30;;;10.50;99.90;;;;;;5018024;28;20037;-65
2024/02/03 03:31:52;;;;;;;40.47;19.45;;;10.50;99.90;;;;;;5020010;28;20033;-66
2024/02/03 03:34:21;;;;;;;38.17;19.88;;;10.50;99.90;;;;;;5019975;28;20064;-65
2024/02/03 03:36:46;;;;;;;;;;;10.50;99.90;;;;;;5018582;28;20036;-65
2024/02/03 03:39:14;;;;;;;39.75;18.70;;;10.50;99.90;;;;;;5012831;28;19909;-65
2024/02/03 03:41:44;;;;;;;36.03;18.60;;;10.40;99.90;;;;;;5015198;28;20428;-65
2024/02/03 03:44:12;;;;;;;39.63;19.67;;;10.40;99.90;;;;;;5016203;28;20145;-65
2024/02/03 03:46:40;;;;;;;;;;;10.40;99.90;;;;;;5020300;28;20091;-65
2024/02/03 03:49:06;;;;;;;38.00;18.80;;;10.40;99.90;;;;;;5024596;28;19925;-65
2024/02/03 03:51:32;;;;;;;38.70;19.75;;;10.40;99.90;;;;;;5014924;28;20561;-65
2024/02/03 03:53:59;;;;;;;34.63;17.98;;;10.40;99.90;;;;;;5017680;28;20227;-74
2024/02/03 03:56:25;;;;;;;37.33;18.10;;;10.40;99.90;;;;;;5020300;28;20021;-71
2024/02/03 03:58:51;;;;;;;38.85;20.15;;;10.40;99.90;;;;;;5019695;28;20228;-72
2024/02/03 04:01:19;;;;;;;35.92;18.63;;;10.40;99.90;;;;;;5014327;28;20633;-72
2024/02/03 04:03:47;;;;;;;33.10;18.30;;;10.30;99.90;;;;;;5021823;28;20537;-71
2024/02/03 04:06:12;;;;;;;34.80;17.83;;;10.30;99.90;;;;;;5021620;28;20049;-72
2024/02/03 04:08:40;;;;;;;32.00;16.17;;;10.40;99.90;;;;;;5022993;28;20088;-72
2024/02/03 04:11:08;;;;;;;32.53;17.80;;;10.30;99.90;;;;;;5006205;28;20033;-72
2024/02/03 04:13:34;;;;;;;32.05;16.70;;;10.40;99.90;;;;;;5017480;28;20578;-72
2024/02/03 04:15:59;;;;;;;32.30;17.25;;;10.40;99.90;;;;;;5020175;28;20022;-72
2024/02/03 04:18:27;;;;;;;29.48;16.27;;;10.40;99.90;;;;;;5003628;28;20026;-72
2024/02/03 04:20:53;;;;;;;30.23;15.88;;;10.40;99.90;;;;;;5024215;28;20158;-71
2024/02/03 04:23:18;;;;;;;27.27;15.73;;;10.30;99.90;;;;;;5023887;28;20760;-73
2024/02/03 04:25:44;;;;;;;28.02;15.38;;;10.40;99.90;;;;;;5023011;28;20049;-72
2024/02/03 04:28:09;;;;;;;30.25;15.32;;;10.40;99.90;;;;;;5027178;28;20086;-71
2024/02/03 04:30:35;;;;;;;27.67;14.98;;;10.40;99.90;;;;;;5021442;28;20083;-71
2024/02/03 04:33:01;;;;;;;26.80;14.90;;;10.40;99.90;;;;;;5022707;28;20129;-72
2024/02/03 04:35:26;;;;;;;27.65;14.93;;;10.30;99.90;;;;;;5020346;28;20129;-72
2024/02/03 04:37:52;;;;;;;27.73;14.45;;;10.30;99.90;;;;;;5020242;28;20430;-71
2024/02/03 04:40:18;;;;;;;28.40;14.93;;;10.30;99.90;;;;;;5018867;28;20038;-71
2024/02/03 04:42:46;;;;;;;29.63;13.68;;;10.30;99.90;;;;;;5016806;28;20025;-72
2024/02/03 04:45:11;;;;;;;29.05;13.25;;;10.30;99.90;;;;;;5019794;28;20483;-72
2024/02/03 04:47:37;;;;;;;28.58;13.70;;;10.30;99.90;;;;;;5022444;28;20045;-72
2024/02/03 04:50:04;;;;;;;25.73;13.50;;;10.30;99.90;;;;;;5015503;28;20476;-71
2024/02/03 04:52:29;;;;;;;25.90;14.10;;;10.30;99.90;;;;;;5020908;28;20017;-72
2024/02/03 04:54:57;;;;;;;21.67;12.82;;;10.30;99.90;;;;;;5019692;28;20522;-72
2024/02/03 04:57:23;;;;;;;24.60;13.35;;;10.30;99.90;;;;;;5019908;28;20032;-71
2024/02/03 04:59:49;;;;;;;28.35;13.90;;;10.30;99.90;;;;;;5015446;28;20030;-72
2024/02/03 05:02:17;;;;;;;22.40;12.73;;;10.30;99.90;;;;;;5019000;28;20125;-72
2024/02/03 05:04:42;;;;;;;24.17;13.00;;;10.30;99.90;;;;;;5014130;28;20037;-72
2024/02/03 05:07:08;;;;;;;23.08;12.68;;;10.30;99.90;;;;;;5023553;28;20068;-72
2024/02/03 05:09:36;;;;;;;22.33;11.73;;;10.30;99.90;;;;;;5019850;28;20034;-72
2024/02/03 05:12:02;;;;;;;20.88;11.57;;;10.30;99.90;;;;;;5019765;28;20041;-72
2024/02/03 05:14:30;;;;;;;22.80;12.43;;;10.30;99.90;;;;;;5024907;28;20129;-72
2024/02/03 05:16:55;;;;;;;20.52;12.13;;;10.30;99.90;;;;;;5022526;28;20166;-72
2024/02/03 05:19:23;;;;;;;24.95;12.30;;;10.30;99.90;;;;;;5023752;28;20057;-72
2024/02/03 05:21:49;;;;;;;23.67;12.85;;;10.30;99.90;;;;;;5020874;28;20049;-72
2024/02/03 05:24:14;;;;;;;21.00;11.57;;;10.30;99.90;;;;;;5021126;28;20464;-71
2024/02/03 05:26:42;;;;;;;21.65;11.52;;;10.30;99.90;;;;;;5011932;28;20033;-71
2024/02/03 05:29:08;;;;;;;25.92;12.82;;;10.30;99.90;;;;;;5020604;28;20555;-71
2024/02/03 05:31:36;;;;;;;22.85;13.05;;;10.30;99.90;;;;;;5015360;28;20057;-71
2024/02/03 05:34:02;;;;;;;22.45;12.50;;;10.30;99.90;;;;;;5019874;28;20037;-71
2024/02/03 05:36:27;;;;;;;21.77;11.18;;;10.30;99.90;;;;;;5029470;28;20084;-71
2024/02/03 05:38:53;;;;;;;20.10;11.30;;;10.30;99.90;;;;;;5027053;28;20044;-72
2024/02/03 05:41:18;;;;;;;18.88;11.23;;;10.30;99.90;;;;;;5019775;28;20491;-72
2024/02/03 05:43:44;;;;;;;19.05;10.38;;;10.30;99.90;;;;;;5017778;28;20084;-71
2024/02/03 05:46:10;;;;;;;21.15;11.25;;;10.40;99.90;;;;;;5019570;28;20064;-71
2024/02/03 05:48:37;;;;;;;18.95;11.02;;;10.30;99.90;;;;;;5023572;28;20129;-71
2024/02/03 05:51:05;;;;;;;21.27;9.75;;;10.30;99.90;;;;;;5020250;28;20086;-71
2024/02/03 05:53:35;;;;;;;19.63;10.35;;;10.30;99.90;;;;;;5025045;28;20068;-72
2024/02/03 05:56:03;;;;;;;17.60;9.38;;;10.30;99.90;;;;;;5001707;28;20034;-71
2024/02/03 05:58:29;;;;;;;17.58;9.82;;;10.30;99.90;;;;;;5023376;28;20029;-72
2024/02/03 06:00:57;;;;;;;22.05;9.90;;;10.30;99.90;;;;;;5022503;28;20091;-71
2024/02/03 06:03:25;;;;;;;;;;;10.30;99.90;;;;;;5024481;28;20498;-72
2024/02/03 06:05:51;;;;;;;14.23;8.38;;;10.30;99.90;;;;;;5024081;28;20363;-71
2024/02/03 06:08:17;;;;;;;15.95;8.38;;;10.30;99.90;;;;;;5021340;28;20077;-72
2024/02/03 06:10:43;;;;;;;15.27;8.43;;;10.30;99.90;;;;;;5019448;28;20053;-71
2024/02/03 06:13:08;;;;;;;14.13;8.00;;;10.30;99.90;;;;;;5022759;28;20080;-72
2024/02/03 06:15:36;;;;;;;16.10;8.73;;;10.30;99.90;;;;;;5020967;28;20021;-72
2024/02/03 06:18:02;;;;;;;15.23;8.60;;;10.30;99.90;;;;;;5021949;28;21564;-71
2024/02/03 06:20:30;;;;;;;15.32;8.40;;;10.30;99.90;;;;;;5024466;28;20055;-72
2024/02/03 06:22:55;;;;;;;13.63;8.15;;;10.30;99.90;;;;;;5022296;28;20080;-72
2024/02/03 06:25:21;;;;;;;14.60;7.78;;;10.30;99.90;;;;;;5019949;28;20037;-71
2024/02/03 06:27:46;;;;;;;15.57;8.50;;;10.30;99.90;;;;;;5020476;28;20038;-71
2024/02/03 06:30:12;;;;;;;12.85;7.63;;;10.30;99.90;;;;;;5018502;28;20064;-72
2024/02/03 06:32:38;;;;;;;15.10;7.72;;;10.30;99.90;;;;;;5023738;28;20483;-72
2024/02/03 06:35:04;;;;;;;15.40;7.47;;;10.30;99.90;;;;;;5023932;28;20033;-71
2024/02/03 06:37:29;;;;;;;15.32;7.80;;;10.30;99.90;;;;;;5021555;28;20474;-72
2024/02/03 06:39:57;;;;;;;11.95;7.13;;;10.30;99.90;;;;;;5021117;28;20026;-72
2024/02/03 06:42:23;;;;;;;14.23;8.45;;;10.30;99.90;;;;;;5021046;28;20041;-72
2024/02/03 06:44:48;;;;;;;13.23;7.70;;;10.30;99.90;;;;;;5002694;28;20042;-72
2024/02/03 06:47:15;;;;;;;14.85;8.07;;;10.30;99.90;;;;;;5023057;28;20037;-71
2024/02/03 06:49:41;;;;;;;12.88;7.68;;;10.30;99.90;;;;;;5023898;28;20041;-72
2024/02/03 06:52:11;;;;;;;13.80;7.55;;;10.30;99.90;;;;;;5020676;28;20041;-72
2024/02/03 06:54:36;;;;;;;13.02;7.47;;;10.30;99.90;;;;;;5020390;28;20025;-72
2024/02/03 06:57:02;;;;;;;12.13;7.05;;;10.30;99.90;;;;;;5020820;28;20091;-72
2024/02/03 06:59:28;;;;;;;11.25;6.80;;;10.30;99.90;;;;;;5018070;28;20038;-71
2024/02/03 07:01:56;;;;;;;12.73;7.00;;;10.30;99.90;;;;;;5013977;28;20091;-71
2024/02/03 07:04:21;;;;;;;;;;;10.30;99.90;;;;;;5022042;28;20133;-71
2024/02/03 07:06:47;;;;;;;12.02;7.28;;;10.30;99.90;;;;;;5018911;28;20020;-71
2024/02/03 07:09:12;;;;;;;10.98;6.78;;;10.30;99.90;;;;;;5018525;28;20032;-72
2024/02/03 07:11:38;;;;;;;10.60;7.13;;;10.30;99.90;;;;;;5024206;28;20036;-72
2024/02/03 07:14:03;;;;;;;10.48;6.88;;;10.30;99.90;;;;;;5021388;28;20525;-72
2024/02/03 07:16:29;;;;;;;11.90;7.25;;;10.30;99.90;;;;;;5021180;28;20584;-71
2024/02/03 07:18:55;;;;;;;10.60;6.70;;;10.30;99.90;;;;;;5015479;28;20048;-72
2024/02/03 07:21:20;;;;;;;11.05;6.63;;;10.30;99.90;;;;;;5019621;28;20029;-72
2024/02/03 07:23:46;;;;;;;10.80;6.57;;;10.30;99.90;;;;;;5017835;28;20124;-71
2024/02/03 07:26:11;;;;;;;10.50;6.47;;;10.30;99.90;;;;;;5018330;28;20030;-71
2024/02/03 07:28:39;;;;;;;11.00;7.07;;;10.30;99.90;;;;;;5019826;28;20033;-74
2024/02/03 07:31:05;;;;;;;10.65;6.78;;;10.30;99.90;;;;;;5018739;28;20034;-72
2024/02/03 07:33:30;;;;;;;12.23;6.88;;;10.40;99.90;;;;;;5018536;28;20026;-72
2024/02/03 07:35:56;;;;;;;13.23;7.03;;;10.40;99.90;;;;;;5023226;28;20403;-72
2024/02/03 07:38:22;;;;;;;9.80;5.93;;;10.40;99.90;;;;;;5020633;28;20029;-72
2024/02/03 07:40:50;;;;;;;12.80;6.90;;;10.40;99.90;;;;;;5015898;28;20038;-72
2024/02/03 07:43:15;;;;;;;;;;;10.40;99.90;;;;;;5021625;28;20659;-72
2024/02/03 07:45:41;;;;;;;11.60;6.65;;;10.40;99.90;;;;;;5022202;28;19952;-73
2024/02/03 07:48:06;;;;;;;11.85;6.72;;;10.40;99.90;;;;;;5016462;28;20022;-72
2024/02/03 07:50:32;;;;;;;10.60;6.72;;;10.40;99.90;;;;;;5016295;28;20075;-72
2024/02/03 07:52:57;;;;;;;13.25;6.68;;;10.40;99.90;;;;;;5018495;28;20045;-72
2024/02/03 07:55:25;;;;;;;16.20;6.88;;;10.50;99.90;;;;;;5017292;28;20383;-72
2024/02/03 07:57:51;;;;;;;11.57;7.28;;;10.50;99.90;;;;;;5020567;28;20118;-72
2024/02/03 08:00:17;;;;;;;11.25;6.93;;;10.50;99.90;;;;;;5018345;28;20539;-73
2024/02/03 08:02:43;;;;;;;13.50;6.38;;;10.50;99.90;;;;;;5022402;28;20037;-72
2024/02/03 08:05:08;;;;;;;10.25;6.15;;;10.50;99.90;;;;;;5019563;28;20036;-72
2024/02/03 08:07:36;;;;;;;10.43;6.85;;;10.50;99.90;;;;;;5021077;28;20045;-72
2024/02/03 08:10:04;;;;;;;9.93;6.20;;;10.50;99.90;;;;;;5018655;28;20493;-72
2024/02/03 08:12:32;;;;;;;11.88;5.97;;;10.50;99.90;;;;;;5016493;28;20059;-72
2024/02/03 08:14:58;;;;;;;;;;;10.50;99.90;;;;;;5016905;28;20058;-72
2024/02/03 08:17:23;;;;;;;9.30;6.20;;;10.60;99.90;;;;;;5019209;28;19952;-72
2024/02/03 08:19:49;;;;;;;10.98;6.63;;;10.50;99.90;;;;;;5018599;28;20038;-72
2024/02/03 08:22:14;;;;;;;11.48;6.80;;;10.50;99.90;;;;;;5017500;28;20513;-72
2024/02/03 08:24:40;;;;;;;10.63;6.20;;;10.50;99.90;;;;;;5020391;28;20025;-73
2024/02/03 08:27:05;;;;;;;9.55;5.90;;;10.60;99.90;;;;;;5021356;28;20038;-71
2024/02/03 08:29:31;;;;;;;9.40;5.57;;;10.50;99.90;;;;;;5016647;28;20050;-72
2024/02/03 08:31:57;;;;;;;8.52;5.75;;;10.60;99.90;;;;;;5023244;28;20077;-73
2024/02/03 08:34:22;;;;;;;9.18;6.07;;;10.60;99.90;;;;;;5016857;28;20387;-73
2024/02/03 08:36:50;;;;;;;9.13;6.28;;;10.60;99.90;;;;;;5021497;28;20033;-73
2024/02/03 08:39:16;;;;;;;8.35;5.38;;;10.70;99.90;;;;;;5018131;28;20022;-73
2024/02/03 08:41:44;;;;;;;11.30;6.55;;;10.60;99.90;;;;;;5016518;28;20092;-73
2024/02/03 08:44:09;;;;;;;;;;;10.60;99.90;;;;;;5020240;28;20507;-73
2024/02/03 08:46:35;;;;;;;9.65;6.22;;;10.60;99.90;;;;;;5019866;28;19931;-72
2024/02/03 08:49:00;;;;;;;8.48;6.05;;;10.70;99.90;;;;;;5024332;28;20041;-74
2024/02/03 08:51:26;;;;;;;9.48;6.45;;;10.70;99.90;;;;;;5003260;28;20658;-74
2024/02/03 08:53:52;;;;;;;8.98;5.88;;;10.70;99.90;;;;;;5021434;28;20077;-73
2024/02/03 08:56:19;;;;;;;9.88;6.13;;;10.70;99.90;;;;;;5016966;28;20038;-73
2024/02/03 08:58:45;;;;;;;10.48;5.70;;;10.70;99.90;;;;;;5001991;28;20048;-73
2024/02/03 09:01:13;;;;;;;8.93;6.00;;;10.70;99.90;;;;;;5020626;28;20029;-72
2024/02/03 09:03:38;;;;;;;9.40;6.10;;;10.70;99.90;;;;;;5020642;28;20430;-73
2024/02/03 09:06:04;;;;;;;10.65;5.78;;;10.70;99.90;;;;;;5020774;28;20037;-77
2024/02/03 09:08:30;;;;;;;9.07;5.95;;;10.70;99.90;;;;;;5019675;28;20040;-73
2024/02/03 09:10:56;;;;;;;11.15;6.75;;;10.70;99.90;;;;;;5022604;28;20258;-74
2024/02/03 09:13:24;;;;;;;12.45;6.15;;;10.80;99.90;;;;;;5045133;22;20495;-72
2024/02/03 09:15:50;;;;;;;10.15;6.15;;;10.80;99.90;;;;;;5021668;28;20025;-71
2024/02/03 09:18:18;;;;;;;9.50;5.65;;;10.80;99.90;;;;;;5005572;28;20084;-73
2024/02/03 09:20:46;;;;;;;8.23;5.82;;;10.70;99.90;;;;;;5024953;28;20052;-72
2024/02/03 09:23:11;;;;;;;11.05;5.68;;;10.70;99.90;;;;;;5026040;28;20660;-73
2024/02/03 09:25:39;;;;;;;9.85;5.93;;;10.70;99.90;;;;;;5023582;28;20038;-73
2024/02/03 09:28:05;;;;;;;9.25;6.22;;;10.70;99.90;;;;;;5021640;28;20037;-72
2024/02/03 09:30:31;;;;;;;10.77;5.70;;;10.70;99.90;;;;;;5027579;28;20033;-72
2024/02/03 09:32:57;;;;;;;9.90;6.18;;;10.70;99.90;;;;;;5018732;28;20037;-72
2024/02/03 09:35:22;;;;;;;9.43;5.43;;;10.70;99.90;;;;;;5022893;28;20134;-72
2024/02/03 09:37:48;;;;;;;7.38;4.93;;;10.70;99.90;;;;;;5023832;28;20025;-72
2024/02/03 09:40:21;;;;;;;7.53;4.78;;;10.80;99.90;;;;;;5021922;28;20080;-73
2024/02/03 09:42:48;;;;;;;7.95;5.10;;;10.70;99.90;;;;;;5026695;28;20022;-72
2024/02/03 09:45:14;;;;;;;5.95;4.18;;;10.80;99.90;;;;;;5022860;28;20072;-72
2024/02/03 09:47:41;;;;;;;8.40;5.25;;;10.70;99.90;;;;;;5025337;28;20041;-71
2024/02/03 09:50:07;;;;;;;9.70;4.78;;;10.70;99.90;;;;;;5021267;28;20030;-71
2024/02/03 09:52:34;;;;;;;7.95;4.63;;;10.80;99.90;;;;;;5023779;28;20415;-72
2024/02/03 09:55:00;;;;;;;9.15;5.25;;;10.70;99.90;;;;;;5020604;28;20037;-71
2024/02/03 09:57:26;;;;;;;9.80;5.25;;;10.70;99.90;;;;;;5020708;28;20017;-72
2024/02/03 09:59:52;;;;;;;11.35;5.03;;;10.80;99.90;;;;;;5021812;28;20032;-73
2024/02/03 10:02:18;;;;;;;8.63;4.97;;;10.70;99.90;;;;;;5022075;28;20042;-72
2024/02/03 10:04:45;;;;;;;8.00;4.65;;;10.80;99.90;;;;;;5019024;28;20029;-72
2024/02/03 10:07:16;;;;;;;8.25;5.25;;;10.80;99.90;;;;;;5008394;28;20029;-72
2024/02/03 10:09:42;;;;;;;7.28;4.95;;;10.80;99.90;;;;;;5006395;28;20039;-72
2024/02/03 10:12:19;;;;;;;10.15;5.60;;;10.80;99.90;;;;;;5021599;28;20034;-72
2024/02/03 10:14:49;;;;;;;8.13;4.53;;;10.80;99.90;;;;;;5015833;28;20112;-72
2024/02/03 10:17:21;;;;;;;9.85;5.07;;;10.80;99.90;;;;;;5016373;28;20040;-72
2024/02/03 10:19:46;;;;;;;9.15;6.22;;;10.80;99.90;;;;;;5021723;28;20518;-72
2024/02/03 10:22:12;;;;;;;9.68;5.78;;;10.80;99.90;;;;;;5025466;28;20033;-72
2024/02/03 10:24:38;;;;;;;8.82;5.85;;;10.80;99.90;;;;;;5028656;28;20167;-72
2024/02/03 10:27:04;;;;;;;8.07;5.78;;;10.80;99.90;;;;;;5020414;28;20038;-72
2024/02/03 10:29:33;;;;;;;10.55;7.03;;;10.80;99.90;;;;;;5020445;28;20041;-72
2024/02/03 10:31:59;;;;;;;11.93;7.18;;;10.80;99.90;;;;;;5019867;28;20215;-74
2024/02/03 10:34:28;;;;;;;16.25;8.07;;;10.90;99.90;;;;;;5024099;28;20117;-72
2024/02/03 10:36:53;;;;;;;12.35;7.68;;;10.80;99.90;;;;;;5022396;28;20112;-72
2024/02/03 10:39:22;;;;;;;12.90;8.23;;;10.90;99.90;;;;;;5021282;28;20117;-72
2024/02/03 10:41:49;;;;;;;15.30;9.85;;;10.80;99.90;;;;;;5019797;28;20076;-72
2024/02/03 10:44:22;;;;;;;17.83;9.48;;;10.80;99.90;;;;;;5021000;28;20981;-72
2024/02/03 10:46:50;;;;;;;16.05;9.70;;;10.80;99.90;;;;;;5024946;28;20435;-72
2024/02/03 10:49:19;;;;;;;14.15;9.15;;;10.90;99.90;;;;;;5023789;28;20040;-73
2024/02/03 10:51:48;;;;;;;17.65;10.20;;;10.90;99.90;;;;;;5022095;28;20129;-72
2024/02/03 10:54:20;;;;;;;19.35;10.43;;;10.90;99.90;;;;;;5022790;28;20101;-72
2024/02/03 10:56:49;;;;;;;16.08;10.10;;;10.90;99.90;;;;;;5022272;28;20049;-73
2024/02/03 10:59:22;;;;;;;18.35;11.73;;;10.90;99.90;;;;;;5020678;28;20260;-72
2024/02/03 11:01:50;;;;;;;20.13;11.27;;;10.90;99.90;;;;;;5024019;28;20506;-74
2024/02/03 11:04:16;;;;;;;18.10;10.68;;;10.90;99.90;;;;;;5023192;28;20029;-72
2024/02/03 11:06:45;;;;;;;19.70;11.18;;;10.90;99.90;;;;;;5027002;28;20438;-73
2024/02/03 11:09:16;;;;;;;23.08;11.52;;;10.90;99.90;;;;;;5024284;28;20085;-73
2024/02/03 11:11:47;;;;;;;17.65;10.82;;;10.90;99.90;;;;;;5002140;28;20719;-73
2024/02/03 11:14:32;;;;;;;16.15;10.68;;;10.90;99.90;;;;;;5018519;28;20098;-71
2024/02/03 11:16:59;;;;;;;18.85;10.48;;;11.00;99.90;;;;;;5022716;28;20026;-72
2024/02/03 11:19:30;;;;;;;19.70;10.73;;;11.00;99.90;;;;;;5022350;28;20034;-72
2024/02/03 11:21:56;;;;;;;18.40;9.80;;;11.00;99.90;;;;;;5023156;28;20017;-72
2024/02/03 11:24:23;;;;;;;20.60;11.77;;;11.00;99.90;;;;;;5020426;28;20167;-72
2024/02/03 11:27:20;;;;;;;17.08;10.18;;;11.10;99.90;;;;;;5017663;28;20037;-73
2024/02/03 11:29:45;;;;;;;23.02;9.98;;;11.10;99.90;;;;;;5014763;28;20037;-72
2024/02/03 11:32:14;;;;;;;18.38;9.95;;;11.10;99.90;;;;;;5021026;28;20370;-72
2024/02/03 11:34:40;;;;;;;19.17;10.10;;;11.10;99.90;;;;;;5023074;28;20045;-72
2024/02/03 11:37:06;;;;;;;19.65;10.63;;;11.10;99.90;;;;;;5016238;28;20037;-73
2024/02/03 11:39:36;;;;;;;17.02;10.10;;;11.10;99.90;;;;;;5018882;28;20026;-73
2024/02/03 11:42:04;;;;;;;15.15;10.18;;;11.10;99.90;;;;;;5017595;28;20538;-72
2024/02/03 11:44:59;;;;;;;19.48;11.43;;;11.10;99.90;;;;;;5022222;28;20056;-72
2024/02/03 11:47:24;;;;;;;18.63;10.68;;;11.10;99.90;;;;;;5012473;28;20038;-73
2024/02/03 11:49:51;;;;;;;18.40;10.50;;;11.10;99.90;;;;;;5021929;28;20080;-73
2024/02/03 11:52:17;;;;;;;18.42;10.70;;;11.20;99.90;;;;;;5020325;28;20060;-73
2024/02/03 11:54:43;;;;;;;19.63;10.52;;;11.20;99.90;;;;;;5019699;28;20468;-73
2024/02/03 11:57:09;;;;;;;22.00;11.40;;;11.20;99.90;;;;;;5022880;28;20051;-73
2024/02/03 11:59:34;;;;;;;23.52;11.10;;;11.20;99.90;;;;;;5020733;28;20483;-73
2024/02/03 12:02:00;;;;;;;20.73;10.70;;;11.10;99.90;;;;;;5018600;28;20035;-72
2024/02/03 12:04:29;;;;;;;19.40;10.80;;;11.20;99.90;;;;;;5019990;28;20033;-73
2024/02/03 12:06:56;;;;;;;18.88;11.32;;;11.20;99.90;;;;;;5016305;28;20026;-72
2024/02/03 12:09:25;;;;;;;16.85;9.88;;;11.20;99.90;;;;;;5018881;28;20131;-72
2024/02/03 12:11:52;;;;;;;17.85;10.52;;;11.20;99.90;;;;;;5020534;28;20084;-72
2024/02/03 12:14:19;;;;;;;21.42;11.80;;;11.20;99.90;;;;;;5020718;28;20041;-74
2024/02/03 12:16:53;;;;;;;17.58;10.68;;;11.20;99.90;;;;;;5014880;28;20055;-73
2024/02/03 12:19:19;;;;;;;19.77;10.98;;;11.20;99.90;;;;;;5013934;28;20570;-73
2024/02/03 12:21:47;;;;;;;17.50;10.57;;;11.20;99.90;;;;;;5016396;28;20018;-73
2024/02/03 12:24:13;;;;;;;20.25;10.40;;;11.20;99.90;;;;;;5016732;28;20041;-73
2024/02/03 12:26:40;;;;;;;17.38;10.30;;;11.30;99.90;;;;;;5019178;28;20026;-72
2024/02/03 12:29:05;;;;;;;16.67;10.63;;;11.30;99.90;;;;;;5019389;28;20045;-73
2024/02/03 12:31:31;;;;;;;17.90;10.48;;;11.30;99.90;;;;;;5020015;28;20059;-72
2024/02/03 12:33:59;;;;;;;15.18;9.55;;;11.30;99.90;;;;;;5016646;28;20034;-72
2024/02/03 12:36:25;;;;;;;;;;;11.40;99.90;;;;;;5021622;28;20041;-73